createdAt,value
2022-08-24T00:01:57.812Z,100102.53
2022-08-24T00:04:26.880Z,100113.13
2022-08-24T00:06:56.473Z,100112.41
2022-08-24T00:09:24.582Z,100108.38
2022-08-24T00:11:52.901Z,100098.84
2022-08-24T00:14:22.406Z,100101.75
2022-08-24T00:16:50.863Z,100104.44
2022-08-24T00:19:19.039Z,100096.66
2022-08-24T00:21:47.236Z,100095.81
2022-08-24T00:24:15.784Z,100096.66
2022-08-24T00:26:44.289Z,100107.63
2022-08-24T00:29:12.975Z,100096.19
2022-08-24T00:31:43.025Z,100094.06
2022-08-24T00:34:13.434Z,100094.19
2022-08-24T00:36:42.195Z,100100.16
2022-08-24T00:39:10.941Z,100099.91
2022-08-24T00:41:43.338Z,100097.34
2022-08-24T00:44:13.914Z,100097.72
2022-08-24T00:46:52.974Z,100096.25
2022-08-24T00:49:26.419Z,100100.97
2022-08-24T00:52:01.367Z,100097.78
2022-08-24T00:54:34.860Z,100092.44
2022-08-24T00:57:10.362Z,100094.00
2022-08-24T00:59:43.528Z,100093.03
2022-08-24T01:02:21.127Z,100088.78
2022-08-24T01:04:54.595Z,100088.78
2022-08-24T01:07:24.228Z,100089.00
2022-08-24T01:09:54.060Z,100093.22
2022-08-24T01:12:25.348Z,100085.31
2022-08-24T01:14:55.299Z,100100.53
2022-08-24T01:17:42.457Z,100099.25
2022-08-24T01:20:12.046Z,100103.75
2022-08-24T01:22:54.624Z,100104.84
2022-08-24T01:25:26.557Z,100094.13
2022-08-24T01:27:57.598Z,100094.38
2022-08-24T01:30:30.541Z,100093.63
2022-08-24T01:33:09.056Z,100101.78
2022-08-24T01:35:39.017Z,100113.53
2022-08-24T01:38:11.524Z,100112.78
2022-08-24T01:40:46.356Z,100122.03
2022-08-24T01:43:16.088Z,100121.28
2022-08-24T01:45:44.785Z,100127.38
2022-08-24T01:48:13.929Z,100131.25
2022-08-24T01:50:42.351Z,100126.09
2022-08-24T01:53:11.653Z,100124.63
2022-08-24T01:55:42.551Z,100129.63
2022-08-24T01:58:11.029Z,100131.25
2022-08-24T02:00:43.531Z,100122.34
2022-08-24T02:03:11.717Z,100122.25
2022-08-24T02:05:40.793Z,100132.22
2022-08-24T02:08:11.512Z,100122.81
2022-08-24T02:10:41.182Z,100119.28
2022-08-24T02:13:17.496Z,100116.16
2022-08-24T02:15:45.736Z,100115.31
2022-08-24T02:18:16.489Z,100122.50
2022-08-24T02:20:45.878Z,100128.81
2022-08-24T02:23:15.005Z,100136.13
2022-08-24T02:25:45.212Z,100136.00
2022-08-24T02:28:14.113Z,100136.47
2022-08-24T02:30:42.386Z,100131.53
2022-08-24T02:33:10.542Z,100130.78
2022-08-24T02:35:39.011Z,100138.69
2022-08-24T02:38:09.132Z,100127.13
2022-08-24T02:40:39.395Z,100139.44
2022-08-24T02:43:09.245Z,100135.41
2022-08-24T02:45:39.962Z,100127.03
2022-08-24T02:48:08.669Z,100132.38
2022-08-24T02:50:40.838Z,100125.97
2022-08-24T02:53:09.235Z,100131.31
2022-08-24T02:55:39.413Z,100138.47
2022-08-24T02:58:10.421Z,100136.13
2022-08-24T03:00:41.599Z,100128.56
2022-08-24T03:03:11.526Z,100130.38
2022-08-24T03:05:40.511Z,100127.59
2022-08-24T03:08:09.505Z,100116.88
2022-08-24T03:10:37.960Z,100126.50
2022-08-24T03:13:08.124Z,100127.72
2022-08-24T03:15:36.728Z,100125.66
2022-08-24T03:18:05.222Z,100127.72
2022-08-24T03:20:33.339Z,100135.19
2022-08-24T03:23:01.713Z,100137.34
2022-08-24T03:25:29.985Z,100130.47
2022-08-24T03:27:58.093Z,100131.44
2022-08-24T03:30:28.368Z,100131.56
2022-08-24T03:32:57.437Z,100133.38
2022-08-24T03:35:25.719Z,100138.09
2022-08-24T03:37:54.374Z,100141.50
2022-08-24T03:40:24.528Z,100141.50
2022-08-24T03:42:56.524Z,100130.81
2022-08-24T03:45:24.741Z,100135.66
2022-08-24T03:47:54.555Z,100140.78
2022-08-24T03:50:24.207Z,100139.91
2022-08-24T03:52:53.188Z,100140.66
2022-08-24T03:55:21.820Z,100147.41
2022-08-24T03:57:50.384Z,100141.00
2022-08-24T04:00:18.973Z,100147.41
2022-08-24T04:02:57.838Z,100141.28
2022-08-24T04:05:27.814Z,100147.72
2022-08-24T04:08:03.303Z,100152.34
2022-08-24T04:10:31.489Z,100146.88
2022-08-24T04:13:01.580Z,100143.13
2022-08-24T04:15:32.264Z,100141.09
2022-08-24T04:18:01.842Z,100142.59
2022-08-24T04:20:29.889Z,100146.44
2022-08-24T04:22:58.232Z,100145.59
2022-08-24T04:25:26.557Z,100131.75
2022-08-24T04:27:54.872Z,100132.41
2022-08-24T04:30:24.718Z,100137.56
2022-08-24T04:33:15.543Z,100140.22
2022-08-24T04:35:48.300Z,100137.22
2022-08-24T04:38:18.093Z,100135.91
2022-08-24T04:41:00.341Z,100133.78
2022-08-24T04:43:28.953Z,100140.00
2022-08-24T04:45:59.786Z,100135.59
2022-08-24T04:48:29.647Z,100141.47
2022-08-24T04:51:03.286Z,100141.25
2022-08-24T04:53:31.806Z,100142.88
2022-08-24T04:56:00.495Z,100139.22
2022-08-24T04:58:30.587Z,100128.28
2022-08-24T05:01:00.164Z,100128.66
2022-08-24T05:03:30.058Z,100121.19
2022-08-24T05:05:58.303Z,100133.25
2022-08-24T05:08:27.152Z,100137.97
2022-08-24T05:10:55.295Z,100139.34
2022-08-24T05:13:23.473Z,100138.78
2022-08-24T05:15:51.611Z,100141.88
2022-08-24T05:18:20.593Z,100133.25
2022-08-24T05:20:50.144Z,100133.88
2022-08-24T05:23:19.824Z,100142.44
2022-08-24T05:25:48.628Z,100143.66
2022-08-24T05:28:17.832Z,100137.50
2022-08-24T05:30:46.329Z,100139.94
2022-08-24T05:33:19.255Z,100146.56
2022-08-24T05:35:50.307Z,100135.25
2022-08-24T05:38:18.426Z,100139.09
2022-08-24T05:40:46.599Z,100137.66
2022-08-24T05:43:15.045Z,100141.22
2022-08-24T05:45:44.884Z,100141.25
2022-08-24T05:48:13.237Z,100139.44
2022-08-24T05:51:17.688Z,100139.19
2022-08-24T05:53:55.426Z,100131.13
2022-08-24T05:59:01.630Z,100131.63
2022-08-24T06:01:30.381Z,100131.75
2022-08-24T06:03:59.403Z,100132.31
2022-08-24T06:06:29.598Z,100131.19
2022-08-24T06:08:59.580Z,100131.38
2022-08-24T06:11:30.788Z,100133.44
2022-08-24T06:14:03.023Z,100132.91
2022-08-24T06:16:37.791Z,100135.75
2022-08-24T06:19:07.502Z,100132.81
2022-08-24T06:21:38.118Z,100139.50
2022-08-24T06:24:07.981Z,100134.03
2022-08-24T06:26:54.376Z,100138.28
2022-08-24T06:29:23.420Z,100133.28
2022-08-24T06:31:56.450Z,100150.88
2022-08-24T06:34:27.091Z,100148.81
2022-08-24T06:36:57.115Z,100153.53
2022-08-24T06:39:27.448Z,100153.91
2022-08-24T06:41:58.079Z,100152.50
2022-08-24T06:44:34.782Z,100160.78
2022-08-24T06:47:12.442Z,100158.19
2022-08-24T06:49:41.420Z,100154.31
2022-08-24T06:52:11.591Z,100158.88
2022-08-24T06:54:40.297Z,100157.66
2022-08-24T06:57:09.108Z,100158.50
2022-08-24T06:59:37.274Z,100167.78
2022-08-24T07:02:06.721Z,100170.38
2022-08-24T07:04:35.696Z,100174.84
2022-08-24T07:07:23.755Z,100167.19
2022-08-24T07:09:52.001Z,100176.31
2022-08-24T07:12:20.986Z,100181.91
2022-08-24T07:14:49.086Z,100178.38
2022-08-24T07:17:18.884Z,100186.97
2022-08-24T07:19:47.955Z,100194.41
2022-08-24T07:22:30.649Z,100194.25
2022-08-24T07:24:58.946Z,100199.38
2022-08-24T07:27:28.799Z,100200.78
2022-08-24T07:30:23.138Z,100199.97
2022-08-24T07:32:46.229Z,100205.50
2022-08-24T07:35:14.449Z,100208.50
2022-08-24T07:37:44.028Z,100210.91
2022-08-24T07:40:13.651Z,100214.78
2022-08-24T07:42:42.394Z,100214.97
2022-08-24T07:45:11.383Z,100208.66
2022-08-24T07:47:47.076Z,100216.78
2022-08-24T07:50:32.998Z,100211.81
2022-08-24T07:53:03.222Z,100212.53
2022-08-24T07:55:34.043Z,100216.22
2022-08-24T07:58:15.269Z,100210.19
2022-08-24T08:00:47.754Z,100213.59
2022-08-24T08:03:15.988Z,100218.56
2022-08-24T08:05:45.529Z,100212.88
2022-08-24T08:08:15.153Z,100222.25
2022-08-24T08:10:43.585Z,100220.13
2022-08-24T08:13:11.984Z,100222.25
2022-08-24T08:15:40.462Z,100218.09
2022-08-24T08:18:11.393Z,100221.81
2022-08-24T08:20:42.943Z,100221.81
2022-08-24T08:23:31.654Z,100221.50
2022-08-24T08:26:17.386Z,100219.38
2022-08-24T08:29:03.386Z,100223.47
2022-08-24T08:31:34.422Z,100226.06
2022-08-24T08:34:04.680Z,100228.19
2022-08-24T08:36:33.480Z,100228.91
2022-08-24T08:39:04.118Z,100228.91
2022-08-24T08:42:06.364Z,100225.00
2022-08-24T08:44:59.792Z,100228.34
2022-08-24T08:47:52.266Z,100221.69
2022-08-24T08:50:30.849Z,100231.72
2022-08-24T08:53:32.861Z,100237.69
2022-08-24T08:56:16.720Z,100227.41
2022-08-24T08:58:59.366Z,100230.47
2022-08-24T09:01:47.976Z,100237.63
2022-08-24T09:04:48.965Z,100232.03
2022-08-24T09:07:36.994Z,100237.53
2022-08-24T09:10:34.966Z,100237.78
2022-08-24T09:13:24.856Z,100236.97
2022-08-24T09:16:12.154Z,100237.00
2022-08-24T09:18:56.369Z,100243.41
2022-08-24T09:21:47.060Z,100241.81
2022-08-24T09:24:38.472Z,100230.03
2022-08-24T09:27:33.070Z,100230.97
2022-08-24T09:30:11.581Z,100226.22
2022-08-24T09:33:00.165Z,100231.53
2022-08-24T09:35:36.823Z,100230.22
2022-08-24T09:38:20.283Z,100228.13
2022-08-24T09:41:04.796Z,100229.06
2022-08-24T09:44:04.327Z,100222.25
2022-08-24T09:47:10.547Z,100220.84
2022-08-24T09:50:07.069Z,100226.44
2022-08-24T09:53:28.423Z,100226.25
2022-08-24T09:56:06.614Z,100217.19
2022-08-24T09:58:50.547Z,100205.22
2022-08-24T10:01:27.109Z,100208.66
2022-08-24T10:04:11.343Z,100200.84
2022-08-24T10:06:51.997Z,100202.88
2022-08-24T10:09:50.340Z,100200.50
2022-08-24T10:12:33.055Z,100211.34
2022-08-24T10:15:06.296Z,100208.56
2022-08-24T10:17:46.850Z,100219.56
2022-08-24T10:20:24.688Z,100213.63
2022-08-24T10:23:08.005Z,100215.28
2022-08-24T10:25:40.989Z,100214.56
2022-08-24T10:28:40.320Z,100215.09
2022-08-24T10:31:12.902Z,100222.03
2022-08-24T10:33:59.204Z,100225.06
2022-08-24T10:37:01.829Z,100221.91
2022-08-24T10:40:01.799Z,100227.28
2022-08-24T10:43:11.427Z,100220.06
2022-08-24T10:46:02.283Z,100215.97
2022-08-24T10:48:56.092Z,100212.78
2022-08-24T10:51:36.208Z,100221.91
2022-08-24T10:54:07.328Z,100216.56
2022-08-24T10:56:42.644Z,100221.94
2022-08-24T10:59:23.726Z,100221.53
2022-08-24T11:02:11.928Z,100225.03
2022-08-24T11:04:41.715Z,100230.13
2022-08-24T11:07:18.529Z,100223.97
2022-08-24T11:09:53.494Z,100219.59
2022-08-24T11:12:29.808Z,100224.78
2022-08-24T11:14:59.622Z,100227.13
2022-08-24T11:17:29.617Z,100224.44
2022-08-24T11:19:59.319Z,100222.09
2022-08-24T11:22:39.513Z,100229.91
2022-08-24T11:25:16.102Z,100226.00
2022-08-24T11:27:48.029Z,100224.84
2022-08-24T11:30:25.277Z,100219.56
2022-08-24T11:32:56.498Z,100227.84
2022-08-24T11:35:27.315Z,100230.72
2022-08-24T11:37:58.032Z,100230.88
2022-08-24T11:40:31.139Z,100234.19
2022-08-24T11:43:22.598Z,100239.91
2022-08-24T11:46:08.035Z,100242.94
2022-08-24T11:48:49.012Z,100226.03
2022-08-24T11:51:28.802Z,100235.03
2022-08-24T11:54:04.634Z,100236.91
2022-08-24T11:56:39.663Z,100240.59
2022-08-24T11:59:17.893Z,100241.28
2022-08-24T12:01:51.330Z,100240.75
2022-08-24T12:04:37.587Z,100242.16
2022-08-24T12:07:20.805Z,100247.41
2022-08-24T12:10:12.523Z,100246.25
2022-08-24T12:12:48.247Z,100245.13
2022-08-24T12:15:26.295Z,100245.09
2022-08-24T12:18:01.494Z,100247.06
2022-08-24T12:20:34.501Z,100248.53
2022-08-24T12:23:07.754Z,100240.88
2022-08-24T12:25:55.273Z,100252.16
2022-08-24T12:28:29.225Z,100245.59
2022-08-24T12:31:04.979Z,100245.16
2022-08-24T12:33:39.651Z,100260.25
2022-08-24T12:36:18.902Z,100264.13
2022-08-24T12:38:52.067Z,100253.06
2022-08-24T12:41:28.349Z,100243.53
2022-08-24T12:44:04.201Z,100241.50
2022-08-24T12:46:32.529Z,100245.53
2022-08-24T12:49:06.229Z,100246.88
2022-08-24T12:51:52.190Z,100252.88
2022-08-24T12:54:39.627Z,100245.63
2022-08-24T12:57:38.928Z,100238.28
2022-08-24T13:00:17.684Z,100238.72
2022-08-24T13:02:55.183Z,100234.97
2022-08-24T13:05:23.590Z,100236.72
2022-08-24T13:07:55.002Z,100236.84
2022-08-24T13:10:43.391Z,100235.38
2022-08-24T13:13:15.611Z,100238.28
2022-08-24T13:16:03.869Z,100230.75
2022-08-24T13:19:19.836Z,100234.16
2022-08-24T13:21:52.586Z,100239.44
2022-08-24T13:24:59.180Z,100239.28
2022-08-24T13:28:01.505Z,100244.84
2022-08-24T13:30:36.518Z,100252.53
2022-08-24T13:33:10.219Z,100255.22
2022-08-24T13:35:55.572Z,100249.41
2022-08-24T13:38:52.509Z,100251.97
2022-08-24T13:41:34.831Z,100245.97
2022-08-24T13:44:11.350Z,100250.22
2022-08-24T13:46:50.756Z,100249.22
2022-08-24T13:49:34.245Z,100251.50
2022-08-24T13:52:14.564Z,100255.91
2022-08-24T13:54:54.011Z,100258.75
2022-08-24T13:57:35.698Z,100250.63
2022-08-24T14:00:18.796Z,100251.03
2022-08-24T14:03:03.658Z,100257.28
2022-08-24T14:05:38.514Z,57910.59
2022-08-24T14:08:23.547Z,57910.59
2022-08-24T14:11:00.262Z,57910.59
2022-08-24T14:13:45.136Z,57910.59
2022-08-24T14:16:51.106Z,57910.59
2022-08-24T14:19:26.144Z,57910.59
2022-08-24T14:22:02.198Z,57910.59
2022-08-24T14:24:42.510Z,57910.59
2022-08-24T14:27:39.766Z,57910.59
2022-08-24T14:30:43.198Z,57910.59
2022-08-24T14:33:20.292Z,57910.59
2022-08-24T14:36:04.573Z,57910.59
2022-08-24T14:38:52.901Z,57910.59
2022-08-24T14:41:56.197Z,57910.59
2022-08-24T14:44:54.194Z,57910.59
2022-08-24T14:47:42.758Z,57910.59
2022-08-24T14:50:17.283Z,57910.59
2022-08-24T14:53:08.307Z,57910.59
2022-08-24T14:55:48.248Z,57910.59
2022-08-24T14:58:30.219Z,57910.59
2022-08-24T15:01:26.396Z,57910.59
2022-08-24T15:04:14.210Z,57910.59
2022-08-24T15:06:48.366Z,57910.59
2022-08-24T15:09:22.716Z,57910.59
2022-08-24T15:11:55.405Z,57910.59
2022-08-24T15:14:37.476Z,57910.59
2022-08-24T15:17:10.815Z,57910.59
2022-08-24T15:19:50.581Z,57910.59
2022-08-24T15:22:27.450Z,57910.59
2022-08-24T15:25:03.729Z,57910.59
2022-08-24T15:27:44.004Z,57910.59
2022-08-24T15:30:24.270Z,57910.59
2022-08-24T15:32:56.014Z,57910.59
2022-08-24T15:35:29.831Z,57910.59
2022-08-24T15:37:58.980Z,57910.59
2022-08-24T15:40:30.525Z,57910.59
2022-08-24T15:43:04.080Z,57910.59
2022-08-24T15:45:34.562Z,57910.59
2022-08-24T15:48:05.468Z,57910.59
2022-08-24T15:50:36.891Z,57910.59
2022-08-24T15:53:11.413Z,57910.59
2022-08-24T15:55:41.710Z,57910.59
2022-08-24T15:58:28.005Z,57910.59
2022-08-24T16:01:19.613Z,57910.59
2022-08-24T16:03:52.191Z,57910.59
2022-08-24T16:06:36.338Z,57910.59
2022-08-24T16:09:10.315Z,57910.59
2022-08-24T16:11:41.236Z,57910.59
2022-08-24T16:14:16.335Z,57910.59
2022-08-24T16:16:46.815Z,57910.59
2022-08-24T16:19:26.086Z,57910.59
2022-08-24T16:22:01.078Z,57910.59
2022-08-24T16:24:36.018Z,57910.59
2022-08-24T16:27:08.268Z,57910.59
2022-08-24T16:29:52.736Z,57910.59
2022-08-24T16:32:32.345Z,57910.59
2022-08-24T16:35:18.011Z,57910.59
2022-08-24T16:37:46.216Z,57910.59
2022-08-24T16:40:14.405Z,57910.59
2022-08-24T16:42:43.214Z,57910.59
2022-08-24T16:45:17.381Z,57910.59
2022-08-24T16:47:46.913Z,57910.59
2022-08-24T16:50:16.733Z,57910.59
2022-08-24T16:52:45.261Z,57910.59
2022-08-24T16:55:14.597Z,57910.59
2022-08-24T16:57:43.406Z,57910.59
2022-08-24T17:00:17.787Z,57910.59
2022-08-24T17:02:48.287Z,57910.59
2022-08-24T17:05:17.910Z,57910.59
2022-08-24T17:07:46.399Z,57910.59
2022-08-24T17:10:16.847Z,57910.59
2022-08-24T17:12:45.058Z,57910.59
2022-08-24T17:15:16.198Z,57910.59
2022-08-24T17:17:49.386Z,57910.59
2022-08-24T17:20:17.635Z,57910.59
2022-08-24T17:22:45.829Z,57910.59
2022-08-24T17:25:14.202Z,57910.59
2022-08-24T17:27:42.801Z,57910.59
2022-08-24T17:30:12.181Z,57910.59
2022-08-24T17:32:41.740Z,57910.59
2022-08-24T17:35:10.591Z,57910.59
2022-08-24T17:37:38.775Z,57910.59
2022-08-24T17:40:11.650Z,57910.59
2022-08-24T17:42:50.814Z,57910.59
2022-08-24T17:45:20.404Z,57910.59
2022-08-24T17:47:50.597Z,57910.59
2022-08-24T17:50:19.880Z,57910.59
2022-08-24T17:52:48.488Z,57910.59
2022-08-24T17:55:25.027Z,57910.59
2022-08-24T17:57:53.871Z,57910.59
2022-08-24T18:00:22.302Z,57910.59
2022-08-24T18:02:51.922Z,57910.59
2022-08-24T18:05:20.498Z,57910.59
2022-08-24T18:07:54.210Z,57910.59
2022-08-24T18:10:25.661Z,57910.59
2022-08-24T18:12:54.313Z,57910.59
2022-08-24T18:15:22.881Z,57910.59
2022-08-24T18:18:06.867Z,57910.59
2022-08-24T18:20:39.904Z,57910.59
2022-08-24T18:23:11.341Z,57910.59
2022-08-24T18:25:45.485Z,57910.59
2022-08-24T18:28:15.137Z,57910.59
2022-08-24T18:30:44.091Z,57910.59
2022-08-24T18:33:13.860Z,57910.59
2022-08-24T18:35:42.108Z,57910.59
2022-08-24T18:38:10.382Z,57910.59
2022-08-24T18:40:38.953Z,57910.59
2022-08-24T18:43:08.249Z,57910.59
2022-08-24T18:45:37.069Z,57910.59
2022-08-24T18:48:05.907Z,57910.59
2022-08-24T18:50:40.127Z,57910.59
2022-08-24T18:53:12.491Z,57910.59
2022-08-24T18:55:42.553Z,57910.59
2022-08-24T18:58:10.996Z,57910.59
2022-08-24T19:00:41.123Z,57910.59
2022-08-24T19:03:12.546Z,57910.59
2022-08-24T19:05:45.436Z,57910.59
2022-08-24T19:08:16.408Z,57910.59
2022-08-24T19:10:44.682Z,57910.59
2022-08-24T19:13:18.261Z,57910.59
2022-08-24T19:15:47.625Z,57910.59
2022-08-24T19:18:17.493Z,57910.59
2022-08-24T19:20:50.177Z,57910.59
2022-08-24T19:23:22.972Z,57910.59
2022-08-24T19:25:52.031Z,57910.59
2022-08-24T19:28:21.485Z,57910.59
2022-08-24T19:30:52.783Z,57910.59
2022-08-24T19:33:26.052Z,57910.59
2022-08-24T19:35:56.614Z,57910.59
2022-08-24T19:38:26.282Z,57910.59
2022-08-24T19:40:56.542Z,57910.59
2022-08-24T19:43:26.664Z,57910.59
2022-08-24T19:46:08.931Z,57910.59
2022-08-24T19:48:40.690Z,57910.59
2022-08-24T19:51:14.058Z,57910.59
2022-08-24T19:53:43.715Z,57910.59
2022-08-24T19:56:12.468Z,57910.59
2022-08-24T19:58:46.633Z,57910.59
2022-08-24T20:01:20.223Z,57910.59
2022-08-24T20:03:49.277Z,57910.59
2022-08-24T20:06:21.272Z,57910.59
2022-08-24T20:08:49.661Z,57910.59
2022-08-24T20:11:19.000Z,57910.59
2022-08-24T20:13:47.541Z,57910.59
2022-08-24T20:16:20.100Z,57910.59
2022-08-24T20:18:48.589Z,57910.59
2022-08-24T20:21:18.293Z,57910.59
2022-08-24T20:23:46.450Z,57910.59
2022-08-24T20:26:15.099Z,57910.59
2022-08-24T20:28:47.705Z,57910.59
2022-08-24T20:31:17.347Z,57910.59
2022-08-24T20:33:45.720Z,57910.59
2022-08-24T20:36:24.001Z,57910.59
2022-08-24T20:38:53.023Z,57910.59
2022-08-24T20:41:21.526Z,57910.59
2022-08-24T20:43:49.860Z,57910.59
2022-08-24T20:46:18.098Z,57910.59
2022-08-24T20:48:55.731Z,57910.59
2022-08-24T20:51:25.674Z,57910.59
2022-08-24T20:53:54.028Z,57910.59
2022-08-24T20:56:27.742Z,57910.59
2022-08-24T20:59:00.165Z,57910.59
2022-08-24T21:01:28.379Z,57910.59
2022-08-24T21:04:00.321Z,57910.59
2022-08-24T21:06:32.994Z,57910.59
2022-08-24T21:09:01.715Z,57910.59
2022-08-24T21:11:33.049Z,57910.59
2022-08-24T21:14:02.460Z,57910.59
2022-08-24T21:16:31.071Z,57910.59
2022-08-24T21:19:01.244Z,57910.59
2022-08-24T21:21:29.627Z,57910.59
2022-08-24T21:23:59.249Z,57910.59
2022-08-24T21:26:31.607Z,57910.59
2022-08-24T21:29:00.093Z,57910.59
2022-08-24T21:31:29.273Z,57910.59
2022-08-24T21:34:14.795Z,57910.59
2022-08-24T21:36:43.563Z,57910.59
2022-08-24T21:39:13.077Z,57910.59
2022-08-24T21:41:41.502Z,57910.59
2022-08-24T21:44:09.653Z,57910.59
2022-08-24T21:46:40.462Z,57910.59
2022-08-24T21:49:12.282Z,57910.59
2022-08-24T21:51:40.720Z,57910.59
2022-08-24T21:54:09.558Z,57910.59
2022-08-24T21:56:39.267Z,57910.59
2022-08-24T21:59:08.423Z,57910.59
2022-08-24T22:01:38.750Z,57910.59
2022-08-24T22:04:08.063Z,57910.59
2022-08-24T22:06:36.643Z,57910.59
2022-08-24T22:09:06.974Z,57910.59
2022-08-24T22:11:35.483Z,57910.59
2022-08-24T22:14:05.385Z,57910.59
2022-08-24T22:16:36.875Z,57910.59
2022-08-24T22:19:05.815Z,57910.59
2022-08-24T22:21:36.032Z,57910.59
2022-08-24T22:24:05.080Z,57910.59
2022-08-24T22:26:33.518Z,57910.59
2022-08-24T22:29:02.474Z,57910.59
2022-08-24T22:31:35.013Z,57910.59
2022-08-24T22:34:07.092Z,57910.59
2022-08-24T22:36:35.776Z,57910.59
2022-08-24T22:39:05.659Z,57910.59
2022-08-24T22:41:33.897Z,57910.59
2022-08-24T22:44:20.349Z,57910.59
2022-08-24T22:46:51.919Z,57910.59
2022-08-24T22:49:21.418Z,57910.59
2022-08-24T22:51:50.048Z,57910.59
2022-08-24T22:54:19.042Z,57910.59
2022-08-24T22:56:49.507Z,57910.59
2022-08-24T22:59:19.536Z,57910.59
2022-08-24T23:01:51.385Z,57910.59
2022-08-24T23:04:23.390Z,57910.59
2022-08-24T23:06:51.694Z,57910.59
2022-08-24T23:09:20.118Z,57910.59
2022-08-24T23:11:48.481Z,57910.59
2022-08-24T23:14:16.918Z,57910.59
2022-08-24T23:16:47.893Z,57910.59
2022-08-24T23:19:36.164Z,57910.59
2022-08-24T23:22:05.291Z,57910.59
2022-08-24T23:24:34.145Z,57910.59
2022-08-24T23:27:03.147Z,57910.59
2022-08-24T23:29:32.054Z,57910.59
2022-08-24T23:32:00.583Z,57910.59
2022-08-24T23:34:30.785Z,57910.59
2022-08-24T23:36:59.239Z,57910.59
2022-08-24T23:39:28.551Z,57910.59
2022-08-24T23:41:56.711Z,57910.59
2022-08-24T23:44:28.507Z,57910.59
2022-08-24T23:46:58.255Z,57910.59
2022-08-24T23:49:30.849Z,57910.59
2022-08-24T23:51:59.827Z,57910.59
2022-08-24T23:54:28.565Z,57910.59
2022-08-24T23:56:57.701Z,57910.59
2022-08-24T23:59:29.409Z,57910.59
